Time;durP1;ratioP1;P1;durP2;ratioP2;P2;SDS_P1;SDS_P2;PMS_P1;PMS_P2;Temp;Humidity;BMP_temperature;BMP_pressure;BME280_temperature;BME280_humidity;BME280_pressure;Samples;Min_cycle;Max_cycle;Signal;HPM_P1;HPM_P2
2023/04/09 00:02:02;;;;;;;88.70;68.82;;;8.50;99.90;;;;;;5055408;28;20452;-73
2023/04/09 00:04:27;;;;;;;82.18;63.72;;;8.50;99.90;;;;;;5044038;28;20048;-73
2023/04/09 00:06:53;;;;;;;86.32;67.15;;;8.50;99.90;;;;;;5075295;28;20073;-73
2023/04/09 00:09:19;;;;;;;83.47;65.25;;;8.50;99.90;;;;;;5055807;28;20044;-74
2023/04/09 00:11:45;;;;;;;86.28;66.53;;;8.50;99.90;;;;;;5039751;28;20565;-73
2023/04/09 00:14:11;;;;;;;85.82;63.72;;;8.50;99.90;;;;;;5072367;28;20037;-73
2023/04/09 00:16:37;;;;;;;84.88;64.07;;;8.50;99.90;;;;;;5040875;28;20048;-73
2023/04/09 00:19:02;;;;;;;82.35;63.47;;;8.50;99.90;;;;;;5077340;28;20097;-73
2023/04/09 00:21:28;;;;;;;80.82;62.15;;;8.50;99.90;;;;;;5073514;28;20051;-73
2023/04/09 00:23:54;;;;;;;77.20;60.78;;;8.40;99.90;;;;;;5059699;28;20067;-73
2023/04/09 00:26:20;;;;;;;77.05;59.67;;;8.40;99.90;;;;;;5060341;28;20133;-73
2023/04/09 00:28:49;;;;;;;77.15;59.20;;;8.40;99.90;;;;;;5041384;28;20074;-73
2023/04/09 00:31:15;;;;;;;74.63;58.03;;;8.40;99.90;;;;;;5059920;28;20123;-73
2023/04/09 00:33:40;;;;;;;77.80;59.15;;;8.40;99.90;;;;;;5053248;28;20131;-73
2023/04/09 00:36:06;;;;;;;78.00;57.85;;;8.30;99.90;;;;;;5060788;28;20036;-73
2023/04/09 00:38:32;;;;;;;74.88;57.38;;;8.30;99.90;;;;;;5063351;28;20102;-72
2023/04/09 00:40:58;;;;;;;76.57;57.55;;;8.30;99.90;;;;;;5066644;28;20121;-73
2023/04/09 00:43:24;;;;;;;73.90;56.28;;;8.30;99.90;;;;;;5078014;28;20054;-73
2023/04/09 00:45:50;;;;;;;72.60;56.88;;;8.30;99.90;;;;;;5062744;28;20048;-73
2023/04/09 00:48:16;;;;;;;67.60;52.13;;;8.30;99.90;;;;;;5065981;28;20039;-73
2023/04/09 00:50:42;;;;;;;70.93;55.03;;;8.30;99.90;;;;;;5078290;28;20051;-73
2023/04/09 00:53:09;;;;;;;67.70;52.50;;;8.20;99.90;;;;;;5087810;28;20131;-73
2023/04/09 00:55:35;;;;;;;70.78;53.90;;;8.20;99.90;;;;;;5066711;28;20054;-73
2023/04/09 00:58:01;;;;;;;67.85;53.47;;;8.20;99.90;;;;;;5051373;28;20052;-73
2023/04/09 01:00:27;;;;;;;69.07;54.20;;;8.20;99.90;;;;;;5083330;28;20048;-73
2023/04/09 01:02:56;;;;;;;72.57;53.72;;;8.20;99.90;;;;;;5070493;28;20048;-72
2023/04/09 01:05:51;;;;;;;67.50;53.13;;;8.20;99.90;;;;;;5067356;28;20036;-72
2023/04/09 01:08:41;;;;;;;68.30;52.33;;;8.20;99.90;;;;;;5051925;28;20141;-72
2023/04/09 01:11:18;;;;;;;68.60;51.58;;;8.10;99.90;;;;;;5082245;28;20047;-73
2023/04/09 01:13:53;;;;;;;67.22;50.13;;;8.10;99.90;;;;;;5087540;28;20048;-73
2023/04/09 01:16:21;;;;;;;62.47;49.13;;;8.10;99.90;;;;;;5081861;28;21191;-73
2023/04/09 01:19:34;;;;;;;63.42;49.85;;;8.10;99.90;;;;;;5067328;28;20200;-72
2023/04/09 01:22:01;;;;;;;65.10;49.30;;;8.10;99.90;;;;;;5070183;28;20047;-72
2023/04/09 01:24:45;;;;;;;65.70;51.25;;;8.10;99.90;;;;;;5063078;28;20047;-72
2023/04/09 01:27:12;;;;;;;61.30;49.15;;;8.10;99.90;;;;;;5056744;28;20052;-72
2023/04/09 01:29:46;;;;;;;62.40;49.28;;;8.00;99.90;;;;;;5060052;28;20105;-72
2023/04/09 01:32:16;;;;;;;58.55;47.00;;;8.00;99.90;;;;;;5097239;27;20040;-72
2023/04/09 01:34:45;;;;;;;62.87;47.07;;;8.00;99.90;;;;;;5071534;28;20052;-72
2023/04/09 01:37:12;;;;;;;62.42;46.83;;;8.00;99.90;;;;;;5061295;28;20824;-72
2023/04/09 01:39:38;;;;;;;58.15;46.53;;;8.00;99.90;;;;;;5076327;28;20056;-72
2023/04/09 01:42:08;;;;;;;64.60;49.10;;;8.00;99.90;;;;;;5042703;28;20086;-72
2023/04/09 01:44:38;;;;;;;58.28;48.45;;;8.00;99.90;;;;;;5076581;28;20044;-72
2023/04/09 01:47:05;;;;;;;59.47;47.47;;;8.00;99.90;;;;;;5088760;27;20071;-72
2023/04/09 01:49:32;;;;;;;63.25;49.00;;;8.00;99.90;;;;;;5061908;28;20056;-72
2023/04/09 01:51:58;;;;;;;59.33;47.30;;;8.00;99.90;;;;;;5058579;28;20066;-72
2023/04/09 01:54:24;;;;;;;54.90;46.35;;;8.00;99.90;;;;;;5045165;28;20084;-72
2023/04/09 01:56:50;;;;;;;58.90;46.85;;;8.00;99.90;;;;;;5075713;28;20098;-73
2023/04/09 01:59:16;;;;;;;59.50;48.17;;;8.00;99.90;;;;;;5064419;28;20052;-72
2023/04/09 02:01:53;;;;;;;54.05;43.08;;;8.00;99.90;;;;;;5058932;27;20051;-73
2023/04/09 02:04:29;;;;;;;61.17;47.30;;;8.00;99.90;;;;;;5075749;28;20039;-72
2023/04/09 02:07:25;;;;;;;62.63;47.60;;;7.90;99.90;;;;;;5080575;28;20047;-72
2023/04/09 02:09:52;;;;;;;57.58;46.40;;;8.00;99.90;;;;;;5055812;28;20642;-71
2023/04/09 02:12:21;;;;;;;58.33;45.95;;;7.90;99.90;;;;;;5079346;28;20047;-72
2023/04/09 02:14:50;;;;;;;54.45;44.33;;;7.90;99.90;;;;;;5079667;28;20040;-72
2023/04/09 02:17:16;;;;;;;56.97;46.08;;;7.90;99.90;;;;;;5053139;28;20037;-73
2023/04/09 02:19:44;;;;;;;60.47;47.35;;;7.80;99.90;;;;;;5075575;28;20051;-73
2023/04/09 02:22:10;;;;;;;63.67;49.42;;;7.80;99.90;;;;;;5077870;28;20055;-72
2023/04/09 02:24:37;;;;;;;57.95;46.28;;;7.80;99.90;;;;;;5078253;28;20518;-73
2023/04/09 02:27:03;;;;;;;65.68;48.80;;;7.70;99.90;;;;;;5073311;28;20051;-72
2023/04/09 02:29:32;;;;;;;55.72;45.08;;;7.70;99.90;;;;;;5045728;28;20591;-73
2023/04/09 02:31:58;;;;;;;55.65;45.50;;;7.80;99.90;;;;;;5063025;28;20101;-73
2023/04/09 02:34:24;;;;;;;56.35;45.42;;;7.70;99.90;;;;;;5060428;28;20044;-72
2023/04/09 02:36:50;;;;;;;56.13;46.08;;;7.80;99.90;;;;;;5060532;28;20055;-72
2023/04/09 02:39:16;;;;;;;64.32;47.75;;;7.70;99.90;;;;;;5043952;28;20097;-73
2023/04/09 02:41:42;;;;;;;63.70;47.50;;;7.70;99.90;;;;;;5059771;28;20059;-73
2023/04/09 02:44:08;;;;;;;64.18;47.05;;;7.70;99.90;;;;;;5076620;28;20053;-73
2023/04/09 02:46:34;;;;;;;63.20;48.47;;;7.60;99.90;;;;;;5080938;28;20047;-73
2023/04/09 02:49:03;;;;;;;67.38;50.83;;;7.60;99.90;;;;;;5059988;28;20047;-73
2023/04/09 02:51:29;;;;;;;68.07;51.42;;;7.60;99.90;;;;;;5026233;28;20051;-73
2023/04/09 02:53:55;;;;;;;66.80;51.22;;;7.60;99.90;;;;;;5029496;28;20120;-71
2023/04/09 02:56:21;;;;;;;72.55;52.45;;;7.60;99.90;;;;;;5076852;28;20126;-71
2023/04/09 02:58:48;;;;;;;67.45;51.72;;;7.50;99.90;;;;;;5062668;28;20048;-71
2023/04/09 03:01:14;;;;;;;71.28;52.17;;;7.50;99.90;;;;;;5059821;28;20051;-72
2023/04/09 03:03:41;;;;;;;70.80;52.38;;;7.50;99.90;;;;;;5077117;28;20541;-71
2023/04/09 03:06:10;;;;;;;73.38;53.35;;;7.50;99.90;;;;;;5058600;28;20096;-72
2023/04/09 03:08:36;;;;;;;75.60;54.25;;;7.50;99.90;;;;;;5028715;28;20528;-71
2023/04/09 03:11:02;;;;;;;72.50;54.00;;;7.50;99.90;;;;;;5058806;28;20039;-72
2023/04/09 03:13:28;;;;;;;69.78;53.75;;;7.50;99.90;;;;;;5043809;28;20757;-71
2023/04/09 03:15:54;;;;;;;72.25;54.08;;;7.50;99.90;;;;;;5061754;28;20146;-72
2023/04/09 03:18:20;;;;;;;68.30;51.83;;;7.60;99.90;;;;;;5043129;28;21042;-72
2023/04/09 03:20:45;;;;;;;69.60;51.42;;;7.60;99.90;;;;;;5042362;28;20075;-71
2023/04/09 03:23:11;;;;;;;72.68;52.25;;;7.60;99.90;;;;;;5058469;28;20043;-72
2023/04/09 03:25:37;;;;;;;73.00;53.90;;;7.60;99.90;;;;;;5075094;28;20148;-72
2023/04/09 03:28:03;;;;;;;71.32;52.13;;;7.50;99.90;;;;;;5060158;28;20043;-72
2023/04/09 03:30:32;;;;;;;69.82;52.30;;;7.50;99.90;;;;;;5060803;28;20502;-72
2023/04/09 03:32:58;;;;;;;69.15;53.15;;;7.40;99.90;;;;;;5076372;28;20051;-72
2023/04/09 03:35:24;;;;;;;68.60;51.25;;;7.50;99.90;;;;;;5075649;28;20047;-73
2023/04/09 03:37:50;;;;;;;67.03;49.88;;;7.50;99.90;;;;;;5041499;28;20051;-72
2023/04/09 03:40:15;;;;;;;64.18;50.10;;;7.50;99.90;;;;;;5075072;28;20508;-72
2023/04/09 03:42:42;;;;;;;65.20;50.38;;;7.50;99.90;;;;;;5076155;28;20055;-72
2023/04/09 03:45:11;;;;;;;67.53;51.75;;;7.40;99.90;;;;;;5077475;28;20498;-72
2023/04/09 03:47:40;;;;;;;63.30;48.80;;;7.50;99.90;;;;;;5075934;28;20115;-72
2023/04/09 03:50:09;;;;;;;66.65;48.67;;;7.40;99.90;;;;;;5059259;28;20054;-72
2023/04/09 03:52:34;;;;;;;66.70;51.63;;;7.40;99.90;;;;;;5058279;28;20644;-72
2023/04/09 03:55:02;;;;;;;65.15;50.40;;;7.40;99.90;;;;;;5056364;28;20047;-73
2023/04/09 03:57:28;;;;;;;66.43;51.40;;;7.50;99.90;;;;;;5058315;28;20032;-72
2023/04/09 03:59:54;;;;;;;62.08;49.08;;;7.40;99.90;;;;;;5057019;28;20050;-73
2023/04/09 04:02:25;;;;;;;63.53;51.08;;;7.50;99.90;;;;;;5051561;28;20299;-72
2023/04/09 04:04:51;;;;;;;66.25;50.63;;;7.50;99.90;;;;;;5072262;28;20693;-72
2023/04/09 04:07:20;;;;;;;65.32;49.75;;;7.40;99.90;;;;;;5058656;28;20039;-73
2023/04/09 04:09:46;;;;;;;64.32;49.95;;;7.50;99.90;;;;;;5080369;28;20036;-72
2023/04/09 04:12:12;;;;;;;64.90;51.40;;;7.50;99.90;;;;;;5078192;28;20616;-72
2023/04/09 04:14:38;;;;;;;62.88;49.42;;;7.50;99.90;;;;;;5065024;28;20039;-72
2023/04/09 04:17:03;;;;;;;58.70;47.47;;;7.50;99.90;;;;;;5059546;28;20140;-73
2023/04/09 04:19:32;;;;;;;62.92;49.83;;;7.50;99.90;;;;;;5046760;28;20097;-73
2023/04/09 04:22:10;;;;;;;62.70;48.13;;;7.50;99.90;;;;;;5062987;28;20580;-72
2023/04/09 04:24:36;;;;;;;57.42;47.13;;;7.50;99.90;;;;;;5078213;28;20096;-73
2023/04/09 04:27:02;;;;;;;62.05;48.67;;;7.50;99.90;;;;;;5076369;28;20043;-73
2023/04/09 04:29:28;;;;;;;62.58;47.92;;;7.50;99.90;;;;;;5078981;28;20085;-73
2023/04/09 04:31:57;;;;;;;59.95;48.20;;;7.50;99.90;;;;;;5058950;28;20486;-72
2023/04/09 04:34:23;;;;;;;57.42;47.13;;;7.50;99.90;;;;;;5059245;28;20532;-71
2023/04/09 04:36:48;;;;;;;61.80;46.70;;;7.50;99.90;;;;;;5093103;27;20383;-70
2023/04/09 04:39:14;;;;;;;57.63;46.40;;;7.50;99.90;;;;;;5057852;28;20169;-71
2023/04/09 04:41:40;;;;;;;53.97;44.67;;;7.50;99.90;;;;;;5060580;28;20549;-71
2023/04/09 04:44:05;;;;;;;52.50;44.13;;;7.50;99.90;;;;;;5058141;28;20048;-71
2023/04/09 04:46:31;;;;;;;54.58;45.25;;;7.50;99.90;;;;;;5063708;28;20044;-71
2023/04/09 04:49:00;;;;;;;55.00;44.40;;;7.50;99.90;;;;;;5058130;28;20084;-72
2023/04/09 04:51:26;;;;;;;52.92;44.58;;;7.50;99.90;;;;;;5060926;28;20052;-72
2023/04/09 04:53:52;;;;;;;52.72;43.22;;;7.50;99.90;;;;;;5028206;28;20051;-72
2023/04/09 04:56:17;;;;;;;53.03;44.38;;;7.50;99.90;;;;;;5061060;28;20063;-71
2023/04/09 04:58:44;;;;;;;52.65;44.70;;;7.60;99.90;;;;;;5074360;28;20080;-71
2023/04/09 05:01:10;;;;;;;51.53;42.95;;;7.60;99.90;;;;;;5075332;28;20043;-72
2023/04/09 05:03:35;;;;;;;52.72;42.67;;;7.50;99.90;;;;;;5044438;28;20054;-71
2023/04/09 05:06:01;;;;;;;48.30;41.75;;;7.50;99.90;;;;;;5060556;28;20075;-71
2023/04/09 05:08:27;;;;;;;48.88;42.15;;;7.60;99.90;;;;;;5042984;28;20160;-72
2023/04/09 05:10:55;;;;;;;51.13;42.28;;;7.60;99.90;;;;;;5044912;28;20486;-72
2023/04/09 05:13:21;;;;;;;47.70;40.20;;;7.60;99.90;;;;;;5046428;28;20039;-72
2023/04/09 05:15:47;;;;;;;43.17;38.40;;;7.60;99.90;;;;;;5073758;28;20055;-72
2023/04/09 05:18:13;;;;;;;46.53;39.10;;;7.60;99.90;;;;;;5066338;28;20052;-72
2023/04/09 05:20:39;;;;;;;43.15;38.42;;;7.60;99.90;;;;;;5048203;28;21940;-72
2023/04/09 05:23:05;;;;;;;43.80;38.55;;;7.70;99.90;;;;;;5065436;28;20052;-72
2023/04/09 05:25:30;;;;;;;47.17;39.20;;;7.60;99.90;;;;;;5081390;28;20141;-73
2023/04/09 05:27:56;;;;;;;44.53;38.38;;;7.70;99.90;;;;;;5064009;28;20047;-72
2023/04/09 05:30:22;;;;;;;45.40;37.72;;;7.70;99.90;;;;;;5064897;28;20036;-72
2023/04/09 05:32:48;;;;;;;45.65;40.63;;;7.70;99.90;;;;;;5084718;28;20054;-72
2023/04/09 05:35:14;;;;;;;45.72;39.78;;;7.70;99.90;;;;;;5045180;28;20040;-72
2023/04/09 05:37:40;;;;;;;47.35;40.90;;;7.70;99.90;;;;;;5049278;28;20047;-72
2023/04/09 05:40:06;;;;;;;47.65;41.47;;;7.70;99.90;;;;;;5063217;28;20107;-72
2023/04/09 05:42:32;;;;;;;48.75;41.17;;;7.80;99.90;;;;;;5048416;28;20109;-72
2023/04/09 05:44:58;;;;;;;48.53;41.63;;;7.70;99.90;;;;;;5078664;28;20661;-72
2023/04/09 05:47:23;;;;;;;49.95;41.83;;;7.70;99.90;;;;;;5080184;28;20051;-72
2023/04/09 05:49:49;;;;;;;43.55;38.80;;;7.80;99.90;;;;;;5064329;28;20827;-72
2023/04/09 05:52:18;;;;;;;45.30;40.33;;;7.80;99.90;;;;;;5080590;28;20472;-72
2023/04/09 05:54:44;;;;;;;48.05;40.33;;;7.70;99.90;;;;;;5063820;28;20048;-72
2023/04/09 05:57:10;;;;;;;45.90;40.00;;;7.70;99.90;;;;;;5066312;28;20040;-72
2023/04/09 05:59:36;;;;;;;44.83;38.90;;;7.70;99.90;;;;;;5064155;28;20055;-72
2023/04/09 06:02:02;;;;;;;45.15;39.30;;;7.80;99.90;;;;;;5064353;28;20664;-72
2023/04/09 06:04:27;;;;;;;42.92;38.22;;;7.80;99.90;;;;;;5080829;28;20119;-72
2023/04/09 06:06:54;;;;;;;44.42;39.60;;;7.80;99.90;;;;;;5062700;28;20056;-72
2023/04/09 06:09:20;;;;;;;44.08;38.58;;;7.80;99.90;;;;;;5046607;28;20040;-72
2023/04/09 06:11:46;;;;;;;43.78;38.92;;;7.80;99.90;;;;;;5063561;28;20051;-72
2023/04/09 06:14:15;;;;;;;43.75;38.58;;;7.80;99.90;;;;;;5048935;28;20644;-72
2023/04/09 06:16:40;;;;;;;44.13;38.53;;;7.80;99.90;;;;;;5088734;28;20056;-71
2023/04/09 06:19:06;;;;;;;44.08;39.28;;;7.80;99.90;;;;;;5064331;28;20581;-71
2023/04/09 06:21:32;;;;;;;44.92;39.28;;;7.80;99.90;;;;;;5101893;27;20042;-72
2023/04/09 06:23:58;;;;;;;43.75;38.97;;;7.80;99.90;;;;;;5062306;28;20424;-71
2023/04/09 06:26:24;;;;;;;45.83;39.05;;;7.80;99.90;;;;;;5060186;28;20048;-72
2023/04/09 06:28:50;;;;;;;43.50;38.67;;;7.90;99.90;;;;;;5098154;27;20286;-71
2023/04/09 06:31:15;;;;;;;43.35;38.65;;;7.90;99.90;;;;;;5082572;28;21330;-71
2023/04/09 06:33:41;;;;;;;45.97;38.65;;;7.90;99.90;;;;;;5060424;28;20141;-71
2023/04/09 06:36:07;;;;;;;42.95;38.28;;;7.90;99.90;;;;;;5082196;28;20035;-71
2023/04/09 06:38:33;;;;;;;42.38;37.88;;;7.90;99.90;;;;;;5062876;28;20715;-71
2023/04/09 06:41:00;;;;;;;45.03;39.83;;;7.90;99.90;;;;;;5065820;28;20106;-73
2023/04/09 06:43:26;;;;;;;43.10;38.03;;;7.90;99.90;;;;;;5042721;28;20043;-70
2023/04/09 06:45:52;;;;;;;45.80;38.85;;;7.90;99.90;;;;;;5041453;28;20036;-70
2023/04/09 06:48:18;;;;;;;42.70;37.83;;;8.00;99.90;;;;;;5059691;28;20067;-71
2023/04/09 06:50:44;;;;;;;44.20;38.60;;;8.00;99.90;;;;;;5060894;28;20084;-71
2023/04/09 06:53:10;;;;;;;46.00;38.50;;;8.00;99.90;;;;;;5059453;28;20086;-72
2023/04/09 06:55:36;;;;;;;45.72;38.53;;;8.00;99.90;;;;;;5063393;28;20358;-72
2023/04/09 06:58:02;;;;;;;43.42;37.22;;;8.00;99.90;;;;;;5092671;27;20043;-70
2023/04/09 07:00:28;;;;;;;48.10;39.55;;;8.00;99.90;;;;;;5044791;28;20451;-71
2023/04/09 07:02:54;;;;;;;44.88;37.72;;;8.10;99.90;;;;;;5077270;28;20055;-71
2023/04/09 07:05:19;;;;;;;47.45;39.45;;;8.10;99.90;;;;;;5060471;28;20115;-72
2023/04/09 07:07:45;;;;;;;45.40;37.88;;;8.10;99.90;;;;;;5032367;28;20048;-72
2023/04/09 07:10:11;;;;;;;45.75;38.10;;;8.10;99.90;;;;;;5067089;28;20048;-72
2023/04/09 07:12:37;;;;;;;44.72;37.45;;;8.20;99.90;;;;;;5077803;28;20048;-72
2023/04/09 07:15:05;;;;;;;45.67;39.22;;;8.20;99.90;;;;;;5079009;28;20048;-72
2023/04/09 07:17:31;;;;;;;48.70;38.83;;;8.30;99.90;;;;;;5079855;28;20115;-72
2023/04/09 07:19:57;;;;;;;50.30;40.63;;;8.30;99.90;;;;;;5075143;28;20052;-70
2023/04/09 07:22:25;;;;;;;49.13;39.63;;;8.40;99.90;;;;;;5061597;28;20166;-73
2023/04/09 07:24:55;;;;;;;46.80;39.20;;;8.50;99.90;;;;;;5077339;28;20713;-73
2023/04/09 07:27:21;;;;;;;48.78;40.65;;;8.50;99.90;;;;;;5060679;28;20078;-71
2023/04/09 07:29:47;;;;;;;48.20;40.53;;;8.60;99.90;;;;;;5079571;28;20048;-70
2023/04/09 07:32:12;;;;;;;45.35;38.30;;;8.60;99.90;;;;;;5044969;28;20040;-71
2023/04/09 07:34:38;;;;;;;47.53;39.42;;;8.60;99.90;;;;;;5027335;28;20042;-71
2023/04/09 07:37:04;;;;;;;49.75;40.22;;;8.70;99.90;;;;;;5076519;28;20580;-71
2023/04/09 07:39:30;;;;;;;47.38;39.25;;;8.70;99.90;;;;;;5060649;28;20443;-71
2023/04/09 07:41:56;;;;;;;46.35;39.08;;;8.70;99.90;;;;;;5075329;28;20126;-72
2023/04/09 07:44:23;;;;;;;48.17;39.72;;;8.80;99.90;;;;;;5056198;28;20104;-71
2023/04/09 07:46:49;;;;;;;45.85;38.75;;;8.80;99.90;;;;;;5074984;28;20532;-71
2023/04/09 07:49:16;;;;;;;47.40;40.08;;;8.80;99.90;;;;;;5059855;28;20044;-71
2023/04/09 07:51:42;;;;;;;48.03;41.15;;;8.90;99.90;;;;;;5042379;28;20072;-72
2023/04/09 07:54:07;;;;;;;47.88;40.17;;;8.80;99.90;;;;;;5058173;28;20335;-71
2023/04/09 07:56:33;;;;;;;49.28;41.10;;;8.80;99.90;;;;;;5058586;28;20043;-72
2023/04/09 07:59:02;;;;;;;51.67;42.67;;;8.80;99.90;;;;;;5022016;28;20564;-72
2023/04/09 08:01:28;;;;;;;50.45;43.15;;;8.90;99.90;;;;;;5041869;28;20032;-72
2023/04/09 08:03:54;;;;;;;53.38;43.72;;;8.90;99.90;;;;;;5041391;28;20857;-71
2023/04/09 08:06:20;;;;;;;52.15;43.97;;;8.90;99.90;;;;;;5075667;28;20048;-70
2023/04/09 08:08:45;;;;;;;50.75;43.33;;;9.00;99.90;;;;;;5043126;28;20048;-71
2023/04/09 08:11:11;;;;;;;51.88;43.45;;;9.00;99.90;;;;;;5056826;28;20617;-71
2023/04/09 08:13:37;;;;;;;51.95;44.55;;;9.00;99.90;;;;;;5073805;28;20156;-71
2023/04/09 08:16:03;;;;;;;52.00;42.53;;;9.10;99.90;;;;;;5059140;28;20051;-71
2023/04/09 08:18:30;;;;;;;48.08;42.70;;;9.10;99.90;;;;;;5075474;28;20543;-72
2023/04/09 08:20:56;;;;;;;49.30;42.45;;;9.10;99.90;;;;;;5057404;28;20051;-72
2023/04/09 08:23:22;;;;;;;48.40;42.83;;;9.10;99.90;;;;;;5060654;28;20042;-71
2023/04/09 08:25:48;;;;;;;50.70;42.58;;;9.20;99.90;;;;;;5042441;28;20067;-71
2023/04/09 08:28:13;;;;;;;46.10;40.28;;;9.20;99.90;;;;;;5058238;28;20075;-71
2023/04/09 08:30:39;;;;;;;47.05;41.40;;;9.30;99.90;;;;;;5059288;28;20086;-70
2023/04/09 08:33:05;;;;;;;46.13;40.85;;;9.50;99.90;;;;;;5042676;28;20044;-71
2023/04/09 08:35:31;;;;;;;46.38;40.17;;;9.70;99.90;;;;;;5075703;28;20035;-72
2023/04/09 08:37:58;;;;;;;49.17;42.38;;;9.80;99.90;;;;;;5077956;28;20079;-70
2023/04/09 08:40:24;;;;;;;46.47;41.38;;;9.90;99.90;;;;;;5075681;28;20075;-70
2023/04/09 08:42:55;;;;;;;44.63;39.72;;;10.00;99.90;;;;;;5075740;28;20845;-70
2023/04/09 08:45:21;;;;;;;43.65;38.92;;;10.10;99.90;;;;;;5073497;28;20078;-71
2023/04/09 08:47:49;;;;;;;42.95;37.83;;;10.30;99.90;;;;;;5074625;28;20227;-71
2023/04/09 08:50:16;;;;;;;42.45;37.45;;;10.60;99.90;;;;;;5061260;28;20056;-71
2023/04/09 08:52:44;;;;;;;41.65;37.03;;;10.90;99.90;;;;;;5079438;28;20048;-71
2023/04/09 08:55:11;;;;;;;41.15;36.53;;;11.00;99.90;;;;;;5064954;28;20040;-71
2023/04/09 08:57:38;;;;;;;43.53;38.95;;;11.20;99.90;;;;;;5066848;28;20044;-71
2023/04/09 09:00:04;;;;;;;40.65;36.28;;;11.30;99.90;;;;;;5081731;28;20071;-71
2023/04/09 09:02:30;;;;;;;40.63;36.28;;;11.40;99.90;;;;;;5064195;28;20414;-71
2023/04/09 09:04:59;;;;;;;41.80;37.17;;;11.50;99.90;;;;;;5046667;28;20067;-71
2023/04/09 09:07:29;;;;;;;42.30;37.70;;;11.50;99.90;;;;;;5064149;28;20048;-71
2023/04/09 09:09:57;;;;;;;36.85;32.85;;;11.60;99.90;;;;;;5063691;28;20047;-71
2023/04/09 09:12:41;;;;;;;38.65;34.45;;;11.80;99.90;;;;;;5080582;28;20060;-71
2023/04/09 09:15:28;;;;;;;38.00;33.78;;;11.70;99.90;;;;;;5080360;28;20054;-71
2023/04/09 09:17:58;;;;;;;40.55;36.15;;;11.60;99.90;;;;;;5095672;27;20144;-71
2023/04/09 09:20:26;;;;;;;40.80;36.33;;;11.50;99.90;;;;;;5082031;28;20252;-71
2023/04/09 09:22:54;;;;;;;40.63;36.08;;;11.50;99.90;;;;;;5082001;28;20078;-71
2023/04/09 09:25:23;;;;;;;42.80;38.20;;;11.60;99.90;;;;;;5059867;28;20106;-71
2023/04/09 09:27:53;;;;;;;40.08;35.78;;;11.60;99.90;;;;;;5062181;28;20044;-71
2023/04/09 09:30:24;;;;;;;40.40;36.00;;;11.60;99.90;;;;;;5076098;28;20371;-71
2023/04/09 09:33:03;;;;;;;37.47;33.47;;;11.60;99.90;;;;;;5078173;28;20055;-71
2023/04/09 09:35:45;;;;;;;37.88;33.85;;;11.60;99.90;;;;;;5078783;28;20093;-71
2023/04/09 09:38:11;;;;;;;38.25;34.13;;;11.50;99.90;;;;;;5060689;28;20051;-71
2023/04/09 09:40:37;;;;;;;38.33;33.08;;;11.60;99.90;;;;;;5059879;28;20116;-71
2023/04/09 09:43:03;;;;;;;39.35;35.13;;;11.70;99.90;;;;;;5077162;28;20063;-71
2023/04/09 09:45:36;;;;;;;37.28;32.05;;;11.80;99.90;;;;;;5064033;28;20048;-71
2023/04/09 09:48:02;;;;;;;36.70;32.78;;;11.80;99.90;;;;;;5062035;28;20052;-72
2023/04/09 09:50:31;;;;;;;38.35;34.25;;;11.80;99.90;;;;;;5027328;28;20047;-71
2023/04/09 09:53:05;;;;;;;37.10;33.22;;;11.70;99.90;;;;;;5077661;28;20052;-71
2023/04/09 09:55:33;;;;;;;37.70;33.80;;;11.80;99.90;;;;;;5077054;28;20528;-71
2023/04/09 09:58:40;;;;;;;36.63;32.83;;;11.80;99.90;;;;;;5061913;28;20047;-71
2023/04/09 10:01:09;;;;;;;38.05;33.90;;;11.90;99.90;;;;;;5049524;28;20094;-71
2023/04/09 10:03:37;;;;;;;37.27;33.27;;;12.00;99.90;;;;;;5063453;28;21084;-71
2023/04/09 10:06:03;;;;;;;36.20;31.90;;;12.20;99.90;;;;;;5075539;28;20086;-70
2023/04/09 10:08:32;;;;;;;36.10;32.17;;;12.40;99.90;;;;;;5043512;28;20055;-71
2023/04/09 10:11:00;;;;;;;38.10;33.15;;;12.60;99.90;;;;;;5076929;28;20105;-71
2023/04/09 10:13:39;;;;;;;36.50;32.60;;;12.60;99.90;;;;;;5063921;28;20169;-71
2023/04/09 10:16:07;;;;;;;36.20;32.05;;;12.60;99.90;;;;;;5075285;28;20124;-71
2023/04/09 10:18:33;;;;;;;36.63;32.63;;;12.60;99.90;;;;;;5060024;28;20374;-71
2023/04/09 10:21:29;;;;;;;37.47;33.63;;;12.60;99.90;;;;;;5060263;28;20043;-71
2023/04/09 10:23:58;;;;;;;35.45;31.65;;;12.80;99.90;;;;;;5060759;28;20090;-71
2023/04/09 10:26:29;;;;;;;36.88;32.97;;;12.80;99.90;;;;;;5059564;28;20100;-71
2023/04/09 10:29:18;;;;;;;36.45;32.60;;;12.80;99.90;;;;;;5097423;27;20148;-71
2023/04/09 10:31:52;;;;;;;36.72;32.35;;;13.00;99.90;;;;;;5078416;28;20055;-71
2023/04/09 10:34:21;;;;;;;34.42;30.77;;;13.10;99.90;;;;;;5076674;28;20056;-71
2023/04/09 10:36:52;;;;;;;34.50;30.80;;;13.30;99.90;;;;;;5062304;28;20047;-71
2023/04/09 10:39:18;;;;;;;35.42;31.70;;;13.40;99.90;;;;;;5078314;28;20064;-71
2023/04/09 10:41:47;;;;;;;36.28;32.47;;;13.40;99.90;;;;;;5065261;28;20048;-71
2023/04/09 10:44:25;;;;;;;35.47;31.65;;;13.40;99.90;;;;;;5077430;28;20104;-71
2023/04/09 10:46:54;;;;;;;40.35;32.15;;;13.30;99.90;;;;;;5083136;28;20052;-71
2023/04/09 10:49:22;;;;;;;35.05;31.38;;;13.30;99.90;;;;;;5073673;28;20085;-71
2023/04/09 10:52:12;;;;;;;35.63;31.88;;;13.40;99.90;;;;;;5074809;28;20051;-71
2023/04/09 10:54:47;;;;;;;36.15;32.35;;;13.40;99.90;;;;;;5058968;28;20079;-71
2023/04/09 10:57:18;;;;;;;34.45;30.80;;;13.40;99.90;;;;;;5077988;28;20450;-71
2023/04/09 10:59:45;;;;;;;35.17;31.50;;;13.20;99.90;;;;;;5061026;28;20143;-71
2023/04/09 11:02:36;;;;;;;37.45;30.45;;;13.20;99.90;;;;;;5081661;28;20070;-71
2023/04/09 11:05:18;;;;;;;33.72;30.20;;;13.10;99.90;;;;;;5064577;28;20081;-71
2023/04/09 11:07:48;;;;;;;33.08;29.55;;;13.20;99.90;;;;;;5091821;27;20506;-71
2023/04/09 11:10:14;;;;;;;32.60;29.25;;;13.30;99.90;;;;;;5078722;28;20733;-72
2023/04/09 11:12:41;;;;;;;33.22;29.83;;;13.40;99.90;;;;;;5059041;28;20047;-72
2023/04/09 11:15:15;;;;;;;32.50;29.15;;;13.40;99.90;;;;;;5076443;28;20078;-72
2023/04/09 11:17:42;;;;;;;33.00;29.60;;;13.50;99.90;;;;;;5061478;28;20055;-72
2023/04/09 11:20:09;;;;;;;30.55;27.35;;;13.70;99.90;;;;;;5079068;28;20055;-71
2023/04/09 11:22:35;;;;;;;33.08;29.77;;;13.80;99.90;;;;;;5078813;28;20128;-71
2023/04/09 11:25:08;;;;;;;30.00;26.90;;;13.90;99.90;;;;;;5061161;28;20450;-72
2023/04/09 11:27:37;;;;;;;30.15;26.95;;;14.10;99.90;;;;;;5059134;28;20130;-72
2023/04/09 11:30:05;;;;;;;31.85;28.63;;;14.10;99.90;;;;;;5075081;28;20044;-71
2023/04/09 11:32:32;;;;;;;30.33;27.33;;;14.00;99.90;;;;;;5060698;28;20047;-71
2023/04/09 11:34:57;;;;;;;31.40;28.20;;;14.00;99.90;;;;;;5061943;28;20063;-71
2023/04/09 11:37:23;;;;;;;31.40;28.20;;;14.00;99.90;;;;;;5078158;28;20174;-71
2023/04/09 11:39:53;;;;;;;33.15;29.75;;;14.00;99.90;;;;;;5061350;28;20083;-71
2023/04/09 11:42:21;;;;;;;31.08;27.77;;;14.00;99.90;;;;;;5058522;28;20132;-71
2023/04/09 11:44:48;;;;;;;28.25;25.30;;;14.10;99.90;;;;;;5058636;28;20052;-71
2023/04/09 11:47:16;;;;;;;28.38;25.42;;;14.30;99.90;;;;;;5075243;28;20745;-71
2023/04/09 11:49:46;;;;;;;29.60;26.48;;;14.60;99.00;;;;;;5076406;28;20059;-71
2023/04/09 11:52:15;;;;;;;29.05;26.05;;;14.70;98.30;;;;;;5078491;28;20060;-71
2023/04/09 11:54:41;;;;;;;27.48;24.77;;;14.70;98.00;;;;;;5074854;28;20067;-71
2023/04/09 11:57:07;;;;;;;29.15;26.25;;;14.60;96.90;;;;;;5075727;28;20048;-70
2023/04/09 11:59:37;;;;;;;28.33;25.40;;;14.50;96.00;;;;;;5076699;28;20812;-71
2023/04/09 12:02:05;;;;;;;28.42;25.52;;;14.50;95.90;;;;;;5059048;28;20048;-72
2023/04/09 12:04:31;;;;;;;24.75;22.13;;;14.50;96.00;;;;;;5076696;28;20036;-72
2023/04/09 12:07:00;;;;;;;26.73;24.08;;;14.40;95.20;;;;;;5060579;28;20449;-72
2023/04/09 12:09:26;;;;;;;26.50;23.83;;;14.30;95.30;;;;;;5058221;28;20063;-70
2023/04/09 12:11:52;;;;;;;26.73;24.02;;;14.40;96.20;;;;;;5076714;28;20047;-71
2023/04/09 12:14:20;;;;;;;26.58;23.88;;;14.50;95.60;;;;;;5060908;28;20058;-71
2023/04/09 12:16:50;;;;;;;26.77;23.95;;;14.60;94.70;;;;;;5062245;28;20044;-70
2023/04/09 12:19:18;;;;;;;24.98;22.40;;;14.60;95.10;;;;;;5076199;28;20757;-72
2023/04/09 12:21:48;;;;;;;26.08;23.40;;;14.50;93.30;;;;;;5059120;28;20581;-71
2023/04/09 12:24:16;;;;;;;26.85;24.10;;;14.30;93.90;;;;;;5057892;28;20055;-71
2023/04/09 12:26:44;;;;;;;24.58;22.08;;;14.20;93.60;;;;;;5077246;28;20059;-71
2023/04/09 12:29:10;;;;;;;25.95;23.27;;;14.10;94.30;;;;;;5079897;28;20063;-71
2023/04/09 12:31:36;;;;;;;25.67;23.05;;;13.90;93.40;;;;;;5066241;28;21964;-70
2023/04/09 12:34:05;;;;;;;24.33;21.75;;;14.00;94.20;;;;;;5079906;28;20096;-71
2023/04/09 12:36:30;;;;;;;24.13;21.50;;;14.20;94.40;;;;;;5064229;28;20401;-71
2023/04/09 12:38:57;;;;;;;24.63;22.13;;;14.40;94.40;;;;;;5063902;28;20048;-71